sensor_id;sensor_type;location;lat;lon;timestamp;P1;durP1;ratioP1;P2;durP2;ratioP2
79664;SDS011;69132;44.014;20.918;2023-10-31T00:03:28;11.38;;;4.85;;
79664;SDS011;69132;44.014;20.918;2023-10-31T00:06:05;8.55;;;5.22;;
79664;SDS011;69132;44.014;20.918;2023-10-31T00:08:32;7.68;;;4.95;;
79664;SDS011;69132;44.014;20.918;2023-10-31T00:11:02;10.57;;;5.63;;
79664;SDS011;69132;44.014;20.918;2023-10-31T00:13:28;10.80;;;5.95;;
79664;SDS011;69132;44.014;20.918;2023-10-31T00:15:54;12.05;;;5.63;;
79664;SDS011;69132;44.014;20.918;2023-10-31T00:18:21;8.70;;;5.43;;
79664;SDS011;69132;44.014;20.918;2023-10-31T00:20:48;9.23;;;5.72;;
79664;SDS011;69132;44.014;20.918;2023-10-31T00:23:16;10.05;;;5.18;;
79664;SDS011;69132;44.014;20.918;2023-10-31T00:28:12;10.35;;;5.25;;
79664;SDS011;69132;44.014;20.918;2023-10-31T00:30:39;9.80;;;5.80;;
79664;SDS011;69132;44.014;20.918;2023-10-31T00:39:12;9.32;;;5.72;;
79664;SDS011;69132;44.014;20.918;2023-10-31T00:41:39;10.75;;;5.60;;
79664;SDS011;69132;44.014;20.918;2023-10-31T00:44:05;8.90;;;5.35;;
79664;SDS011;69132;44.014;20.918;2023-10-31T00:46:32;10.80;;;5.22;;
79664;SDS011;69132;44.014;20.918;2023-10-31T00:48:58;7.90;;;5.47;;
79664;SDS011;69132;44.014;20.918;2023-10-31T00:51:24;11.45;;;5.47;;
79664;SDS011;69132;44.014;20.918;2023-10-31T00:53:50;8.82;;;5.68;;
79664;SDS011;69132;44.014;20.918;2023-10-31T00:56:16;14.50;;;6.32;;
79664;SDS011;69132;44.014;20.918;2023-10-31T00:58:53;10.00;;;5.20;;
79664;SDS011;69132;44.014;20.918;2023-10-31T01:01:19;9.88;;;5.93;;
79664;SDS011;69132;44.014;20.918;2023-10-31T01:04:01;14.25;;;5.50;;
79664;SDS011;69132;44.014;20.918;2023-10-31T01:06:27;11.65;;;5.95;;
79664;SDS011;69132;44.014;20.918;2023-10-31T01:08:54;10.27;;;5.43;;
79664;SDS011;69132;44.014;20.918;2023-10-31T01:11:20;8.93;;;4.78;;
79664;SDS011;69132;44.014;20.918;2023-10-31T01:13:46;12.40;;;5.18;;
79664;SDS011;69132;44.014;20.918;2023-10-31T01:16:12;11.43;;;5.45;;
79664;SDS011;69132;44.014;20.918;2023-10-31T01:18:38;7.63;;;5.13;;
79664;SDS011;69132;44.014;20.918;2023-10-31T01:23:37;8.43;;;4.68;;
79664;SDS011;69132;44.014;20.918;2023-10-31T01:26:03;9.05;;;5.15;;
79664;SDS011;69132;44.014;20.918;2023-10-31T01:28:30;9.40;;;5.57;;
79664;SDS011;69132;44.014;20.918;2023-10-31T01:31:03;13.68;;;5.53;;
79664;SDS011;69132;44.014;20.918;2023-10-31T01:33:31;13.25;;;6.25;;
79664;SDS011;69132;44.014;20.918;2023-10-31T01:35:57;9.05;;;5.30;;
79664;SDS011;69132;44.014;20.918;2023-10-31T01:41:12;9.55;;;5.63;;
79664;SDS011;69132;44.014;20.918;2023-10-31T01:43:38;8.70;;;4.57;;
79664;SDS011;69132;44.014;20.918;2023-10-31T01:46:04;7.07;;;4.25;;
79664;SDS011;69132;44.014;20.918;2023-10-31T01:48:31;7.82;;;4.13;;
79664;SDS011;69132;44.014;20.918;2023-10-31T01:50:58;15.65;;;4.25;;
79664;SDS011;69132;44.014;20.918;2023-10-31T01:53:26;19.67;;;5.07;;
79664;SDS011;69132;44.014;20.918;2023-10-31T01:55:54;10.45;;;4.60;;
79664;SDS011;69132;44.014;20.918;2023-10-31T01:58:21;9.38;;;4.55;;
79664;SDS011;69132;44.014;20.918;2023-10-31T02:00:48;13.10;;;4.68;;
79664;SDS011;69132;44.014;20.918;2023-10-31T02:03:14;7.80;;;5.00;;
79664;SDS011;69132;44.014;20.918;2023-10-31T02:05:45;8.27;;;4.63;;
79664;SDS011;69132;44.014;20.918;2023-10-31T02:08:11;9.48;;;5.07;;
79664;SDS011;69132;44.014;20.918;2023-10-31T02:10:37;7.60;;;3.90;;
79664;SDS011;69132;44.014;20.918;2023-10-31T02:13:11;6.13;;;4.53;;
79664;SDS011;69132;44.014;20.918;2023-10-31T02:15:38;8.75;;;4.55;;
79664;SDS011;69132;44.014;20.918;2023-10-31T02:18:04;7.45;;;4.13;;
79664;SDS011;69132;44.014;20.918;2023-10-31T02:20:30;11.95;;;4.28;;
79664;SDS011;69132;44.014;20.918;2023-10-31T02:22:56;5.95;;;4.30;;
79664;SDS011;69132;44.014;20.918;2023-10-31T02:25:22;11.32;;;4.60;;
79664;SDS011;69132;44.014;20.918;2023-10-31T02:27:49;8.57;;;4.55;;
79664;SDS011;69132;44.014;20.918;2023-10-31T02:30:15;10.32;;;4.63;;
79664;SDS011;69132;44.014;20.918;2023-10-31T02:32:41;5.82;;;4.32;;
79664;SDS011;69132;44.014;20.918;2023-10-31T02:35:09;10.30;;;6.82;;
79664;SDS011;69132;44.014;20.918;2023-10-31T02:37:36;9.05;;;4.88;;
79664;SDS011;69132;44.014;20.918;2023-10-31T02:40:02;7.90;;;5.03;;
79664;SDS011;69132;44.014;20.918;2023-10-31T02:42:28;9.82;;;4.50;;
79664;SDS011;69132;44.014;20.918;2023-10-31T02:44:55;6.75;;;4.63;;
79664;SDS011;69132;44.014;20.918;2023-10-31T02:47:21;7.80;;;4.00;;
79664;SDS011;69132;44.014;20.918;2023-10-31T02:49:47;11.15;;;4.93;;
79664;SDS011;69132;44.014;20.918;2023-10-31T02:52:13;8.10;;;4.60;;
79664;SDS011;69132;44.014;20.918;2023-10-31T02:54:40;7.03;;;4.50;;
79664;SDS011;69132;44.014;20.918;2023-10-31T02:57:06;8.63;;;4.53;;
79664;SDS011;69132;44.014;20.918;2023-10-31T02:59:34;7.30;;;4.57;;
79664;SDS011;69132;44.014;20.918;2023-10-31T03:02:00;9.65;;;4.75;;
79664;SDS011;69132;44.014;20.918;2023-10-31T03:04:27;11.35;;;4.30;;
79664;SDS011;69132;44.014;20.918;2023-10-31T03:06:53;8.38;;;4.72;;
79664;SDS011;69132;44.014;20.918;2023-10-31T03:09:35;6.03;;;4.13;;
79664;SDS011;69132;44.014;20.918;2023-10-31T03:12:02;8.65;;;3.95;;
79664;SDS011;69132;44.014;20.918;2023-10-31T03:14:29;9.02;;;4.05;;
79664;SDS011;69132;44.014;20.918;2023-10-31T03:19:58;8.02;;;3.90;;
79664;SDS011;69132;44.014;20.918;2023-10-31T03:22:24;8.30;;;4.00;;
79664;SDS011;69132;44.014;20.918;2023-10-31T03:24:50;8.45;;;3.80;;
79664;SDS011;69132;44.014;20.918;2023-10-31T03:27:16;8.70;;;4.22;;
79664;SDS011;69132;44.014;20.918;2023-10-31T03:29:44;11.90;;;4.13;;
79664;SDS011;69132;44.014;20.918;2023-10-31T03:32:11;7.32;;;4.75;;
79664;SDS011;69132;44.014;20.918;2023-10-31T03:34:37;9.90;;;4.35;;
79664;SDS011;69132;44.014;20.918;2023-10-31T03:37:04;9.65;;;4.30;;
79664;SDS011;69132;44.014;20.918;2023-10-31T03:39:31;8.75;;;4.53;;
79664;SDS011;69132;44.014;20.918;2023-10-31T03:41:58;9.30;;;4.20;;
79664;SDS011;69132;44.014;20.918;2023-10-31T03:44:24;6.90;;;3.95;;
79664;SDS011;69132;44.014;20.918;2023-10-31T03:46:50;7.72;;;4.10;;
79664;SDS011;69132;44.014;20.918;2023-10-31T03:49:16;11.85;;;3.97;;
79664;SDS011;69132;44.014;20.918;2023-10-31T03:51:42;7.35;;;3.60;;
79664;SDS011;69132;44.014;20.918;2023-10-31T03:57:10;9.95;;;4.53;;
79664;SDS011;69132;44.014;20.918;2023-10-31T03:59:37;11.05;;;3.90;;
79664;SDS011;69132;44.014;20.918;2023-10-31T04:02:04;7.07;;;3.58;;
79664;SDS011;69132;44.014;20.918;2023-10-31T04:04:36;7.93;;;4.45;;
79664;SDS011;69132;44.014;20.918;2023-10-31T04:07:02;7.13;;;4.55;;
79664;SDS011;69132;44.014;20.918;2023-10-31T04:09:29;11.68;;;4.45;;
79664;SDS011;69132;44.014;20.918;2023-10-31T04:12:00;12.77;;;4.72;;
79664;SDS011;69132;44.014;20.918;2023-10-31T04:14:26;10.38;;;4.18;;
79664;SDS011;69132;44.014;20.918;2023-10-31T04:16:53;10.60;;;4.32;;
79664;SDS011;69132;44.014;20.918;2023-10-31T04:19:19;12.85;;;4.43;;
79664;SDS011;69132;44.014;20.918;2023-10-31T04:21:46;10.05;;;5.07;;
79664;SDS011;69132;44.014;20.918;2023-10-31T04:24:15;10.63;;;3.95;;
79664;SDS011;69132;44.014;20.918;2023-10-31T04:26:42;8.93;;;4.80;;
79664;SDS011;69132;44.014;20.918;2023-10-31T04:29:09;11.88;;;4.70;;
79664;SDS011;69132;44.014;20.918;2023-10-31T04:31:35;9.30;;;4.60;;
79664;SDS011;69132;44.014;20.918;2023-10-31T04:34:02;9.85;;;5.90;;
79664;SDS011;69132;44.014;20.918;2023-10-31T04:36:31;14.80;;;5.00;;
79664;SDS011;69132;44.014;20.918;2023-10-31T04:38:59;12.65;;;5.10;;
79664;SDS011;69132;44.014;20.918;2023-10-31T04:43:54;11.65;;;4.72;;
79664;SDS011;69132;44.014;20.918;2023-10-31T04:46:21;8.18;;;4.38;;
79664;SDS011;69132;44.014;20.918;2023-10-31T04:48:47;6.97;;;4.35;;
79664;SDS011;69132;44.014;20.918;2023-10-31T04:51:14;9.68;;;5.32;;
79664;SDS011;69132;44.014;20.918;2023-10-31T04:53:41;11.00;;;5.82;;
79664;SDS011;69132;44.014;20.918;2023-10-31T04:56:11;8.80;;;4.32;;
79664;SDS011;69132;44.014;20.918;2023-10-31T04:58:39;12.00;;;5.90;;
79664;SDS011;69132;44.014;20.918;2023-10-31T05:01:11;12.02;;;4.53;;
79664;SDS011;69132;44.014;20.918;2023-10-31T05:03:37;9.90;;;5.47;;
79664;SDS011;69132;44.014;20.918;2023-10-31T05:06:04;8.80;;;5.15;;
79664;SDS011;69132;44.014;20.918;2023-10-31T05:08:31;8.45;;;5.22;;
79664;SDS011;69132;44.014;20.918;2023-10-31T05:10:57;11.65;;;4.82;;
79664;SDS011;69132;44.014;20.918;2023-10-31T05:13:23;9.10;;;4.25;;
79664;SDS011;69132;44.014;20.918;2023-10-31T05:15:49;9.15;;;4.60;;
79664;SDS011;69132;44.014;20.918;2023-10-31T05:18:19;10.10;;;4.45;;
79664;SDS011;69132;44.014;20.918;2023-10-31T05:20:45;13.63;;;4.78;;
79664;SDS011;69132;44.014;20.918;2023-10-31T05:23:11;10.25;;;5.28;;
79664;SDS011;69132;44.014;20.918;2023-10-31T05:25:46;10.90;;;4.43;;
79664;SDS011;69132;44.014;20.918;2023-10-31T05:28:16;8.85;;;4.70;;
79664;SDS011;69132;44.014;20.918;2023-10-31T05:30:45;6.95;;;3.97;;
79664;SDS011;69132;44.014;20.918;2023-10-31T05:33:14;16.40;;;4.70;;
79664;SDS011;69132;44.014;20.918;2023-10-31T05:35:40;10.07;;;4.60;;
79664;SDS011;69132;44.014;20.918;2023-10-31T05:38:06;5.07;;;3.83;;
79664;SDS011;69132;44.014;20.918;2023-10-31T05:40:32;11.43;;;5.32;;
79664;SDS011;69132;44.014;20.918;2023-10-31T05:43:00;14.30;;;5.65;;
79664;SDS011;69132;44.014;20.918;2023-10-31T05:45:27;10.45;;;5.18;;
79664;SDS011;69132;44.014;20.918;2023-10-31T05:47:53;16.90;;;6.38;;
79664;SDS011;69132;44.014;20.918;2023-10-31T05:50:21;10.82;;;4.57;;
79664;SDS011;69132;44.014;20.918;2023-10-31T05:52:47;9.88;;;4.50;;
79664;SDS011;69132;44.014;20.918;2023-10-31T05:55:14;8.95;;;4.93;;
79664;SDS011;69132;44.014;20.918;2023-10-31T05:57:41;10.82;;;4.70;;
79664;SDS011;69132;44.014;20.918;2023-10-31T06:00:07;8.18;;;4.10;;
79664;SDS011;69132;44.014;20.918;2023-10-31T06:02:34;10.95;;;4.38;;
79664;SDS011;69132;44.014;20.918;2023-10-31T06:05:00;7.40;;;4.10;;
79664;SDS011;69132;44.014;20.918;2023-10-31T06:07:26;12.93;;;4.97;;
79664;SDS011;69132;44.014;20.918;2023-10-31T06:09:52;15.63;;;6.68;;
79664;SDS011;69132;44.014;20.918;2023-10-31T06:12:18;14.57;;;4.75;;
79664;SDS011;69132;44.014;20.918;2023-10-31T06:14:45;15.05;;;5.80;;
79664;SDS011;69132;44.014;20.918;2023-10-31T06:17:12;10.15;;;5.03;;
79664;SDS011;69132;44.014;20.918;2023-10-31T06:19:38;14.55;;;5.88;;
79664;SDS011;69132;44.014;20.918;2023-10-31T06:22:12;13.05;;;5.13;;
79664;SDS011;69132;44.014;20.918;2023-10-31T06:24:41;10.23;;;5.25;;
79664;SDS011;69132;44.014;20.918;2023-10-31T06:27:07;9.93;;;3.70;;
79664;SDS011;69132;44.014;20.918;2023-10-31T06:29:35;8.60;;;3.83;;
79664;SDS011;69132;44.014;20.918;2023-10-31T06:32:01;8.55;;;4.50;;
79664;SDS011;69132;44.014;20.918;2023-10-31T06:34:27;7.88;;;4.68;;
79664;SDS011;69132;44.014;20.918;2023-10-31T06:36:53;11.35;;;4.85;;
79664;SDS011;69132;44.014;20.918;2023-10-31T06:39:19;12.75;;;5.72;;
79664;SDS011;69132;44.014;20.918;2023-10-31T06:41:47;22.98;;;9.27;;
79664;SDS011;69132;44.014;20.918;2023-10-31T06:44:23;15.32;;;5.22;;
79664;SDS011;69132;44.014;20.918;2023-10-31T06:46:52;10.18;;;4.00;;
79664;SDS011;69132;44.014;20.918;2023-10-31T06:49:19;12.80;;;5.18;;
79664;SDS011;69132;44.014;20.918;2023-10-31T06:51:50;15.50;;;4.97;;
79664;SDS011;69132;44.014;20.918;2023-10-31T06:54:19;8.00;;;4.00;;
79664;SDS011;69132;44.014;20.918;2023-10-31T06:56:47;11.25;;;3.90;;
79664;SDS011;69132;44.014;20.918;2023-10-31T06:59:15;7.35;;;3.58;;
79664;SDS011;69132;44.014;20.918;2023-10-31T07:01:42;11.35;;;4.28;;
79664;SDS011;69132;44.014;20.918;2023-10-31T07:04:10;13.05;;;4.97;;
79664;SDS011;69132;44.014;20.918;2023-10-31T07:06:37;10.13;;;5.20;;
79664;SDS011;69132;44.014;20.918;2023-10-31T07:09:03;15.32;;;5.13;;
79664;SDS011;69132;44.014;20.918;2023-10-31T07:11:30;15.43;;;6.43;;
79664;SDS011;69132;44.014;20.918;2023-10-31T07:16:43;15.05;;;7.60;;
79664;SDS011;69132;44.014;20.918;2023-10-31T07:19:10;14.60;;;6.45;;
79664;SDS011;69132;44.014;20.918;2023-10-31T07:21:36;15.35;;;7.70;;
79664;SDS011;69132;44.014;20.918;2023-10-31T07:24:03;17.50;;;7.90;;
79664;SDS011;69132;44.014;20.918;2023-10-31T07:26:34;14.10;;;8.00;;
79664;SDS011;69132;44.014;20.918;2023-10-31T07:29:05;21.27;;;8.27;;
79664;SDS011;69132;44.014;20.918;2023-10-31T07:31:33;15.20;;;8.00;;
79664;SDS011;69132;44.014;20.918;2023-10-31T07:34:03;18.48;;;9.77;;
79664;SDS011;69132;44.014;20.918;2023-10-31T07:36:29;18.85;;;8.57;;
79664;SDS011;69132;44.014;20.918;2023-10-31T07:39:03;13.63;;;7.38;;
79664;SDS011;69132;44.014;20.918;2023-10-31T07:41:29;16.35;;;8.65;;
79664;SDS011;69132;44.014;20.918;2023-10-31T07:44:01;16.25;;;8.82;;
79664;SDS011;69132;44.014;20.918;2023-10-31T07:46:27;14.45;;;7.57;;
79664;SDS011;69132;44.014;20.918;2023-10-31T07:48:53;18.20;;;7.95;;
79664;SDS011;69132;44.014;20.918;2023-10-31T07:51:19;12.10;;;6.45;;
79664;SDS011;69132;44.014;20.918;2023-10-31T07:53:45;12.20;;;6.93;;
79664;SDS011;69132;44.014;20.918;2023-10-31T07:56:16;12.02;;;5.55;;
79664;SDS011;69132;44.014;20.918;2023-10-31T07:58:43;11.20;;;4.70;;
79664;SDS011;69132;44.014;20.918;2023-10-31T08:01:09;11.65;;;4.82;;
79664;SDS011;69132;44.014;20.918;2023-10-31T08:06:12;6.05;;;3.53;;
79664;SDS011;69132;44.014;20.918;2023-10-31T08:08:39;9.40;;;3.10;;
79664;SDS011;69132;44.014;20.918;2023-10-31T08:13:49;7.18;;;3.38;;
79664;SDS011;69132;44.014;20.918;2023-10-31T08:16:19;6.18;;;3.25;;
79664;SDS011;69132;44.014;20.918;2023-10-31T08:24:37;6.97;;;3.47;;
79664;SDS011;69132;44.014;20.918;2023-10-31T08:27:04;7.15;;;2.88;;
79664;SDS011;69132;44.014;20.918;2023-10-31T08:29:31;6.85;;;3.03;;
79664;SDS011;69132;44.014;20.918;2023-10-31T08:31:59;9.93;;;3.67;;
79664;SDS011;69132;44.014;20.918;2023-10-31T08:37:28;7.88;;;3.13;;
79664;SDS011;69132;44.014;20.918;2023-10-31T08:39:55;5.60;;;3.20;;
79664;SDS011;69132;44.014;20.918;2023-10-31T08:42:22;7.95;;;3.42;;
79664;SDS011;69132;44.014;20.918;2023-10-31T08:44:48;6.55;;;3.03;;
79664;SDS011;69132;44.014;20.918;2023-10-31T08:47:15;6.88;;;3.83;;
79664;SDS011;69132;44.014;20.918;2023-10-31T08:49:44;8.83;;;2.90;;
79664;SDS011;69132;44.014;20.918;2023-10-31T08:52:10;7.18;;;3.13;;
79664;SDS011;69132;44.014;20.918;2023-10-31T08:54:37;5.65;;;3.25;;
79664;SDS011;69132;44.014;20.918;2023-10-31T08:57:04;14.32;;;3.47;;
79664;SDS011;69132;44.014;20.918;2023-10-31T08:59:30;14.25;;;3.45;;
79664;SDS011;69132;44.014;20.918;2023-10-31T09:01:57;7.10;;;3.58;;
79664;SDS011;69132;44.014;20.918;2023-10-31T09:04:23;11.32;;;3.60;;
79664;SDS011;69132;44.014;20.918;2023-10-31T09:06:49;6.80;;;4.00;;
79664;SDS011;69132;44.014;20.918;2023-10-31T09:09:15;7.32;;;3.45;;
79664;SDS011;69132;44.014;20.918;2023-10-31T09:11:41;17.65;;;5.10;;
79664;SDS011;69132;44.014;20.918;2023-10-31T09:14:08;7.00;;;3.80;;
79664;SDS011;69132;44.014;20.918;2023-10-31T09:16:35;5.50;;;3.47;;
79664;SDS011;69132;44.014;20.918;2023-10-31T09:19:07;8.35;;;3.85;;
79664;SDS011;69132;44.014;20.918;2023-10-31T09:21:33;6.68;;;3.88;;
79664;SDS011;69132;44.014;20.918;2023-10-31T09:26:27;5.25;;;2.88;;
79664;SDS011;69132;44.014;20.918;2023-10-31T09:28:53;9.75;;;4.35;;
79664;SDS011;69132;44.014;20.918;2023-10-31T09:31:38;10.00;;;4.22;;
79664;SDS011;69132;44.014;20.918;2023-10-31T09:34:07;8.35;;;3.78;;
79664;SDS011;69132;44.014;20.918;2023-10-31T09:36:34;9.55;;;3.78;;
79664;SDS011;69132;44.014;20.918;2023-10-31T09:39:17;11.55;;;4.82;;
79664;SDS011;69132;44.014;20.918;2023-10-31T09:41:45;10.95;;;4.60;;
79664;SDS011;69132;44.014;20.918;2023-10-31T09:44:11;7.38;;;4.30;;
79664;SDS011;69132;44.014;20.918;2023-10-31T09:46:39;5.70;;;4.25;;
79664;SDS011;69132;44.014;20.918;2023-10-31T09:49:08;5.82;;;3.95;;
79664;SDS011;69132;44.014;20.918;2023-10-31T09:51:36;10.65;;;4.45;;
79664;SDS011;69132;44.014;20.918;2023-10-31T09:54:04;10.93;;;4.40;;
79664;SDS011;69132;44.014;20.918;2023-10-31T09:56:33;4.82;;;3.35;;
79664;SDS011;69132;44.014;20.918;2023-10-31T09:59:00;8.80;;;3.72;;
79664;SDS011;69132;44.014;20.918;2023-10-31T10:01:28;14.32;;;4.50;;
79664;SDS011;69132;44.014;20.918;2023-10-31T10:07:01;10.18;;;4.28;;
79664;SDS011;69132;44.014;20.918;2023-10-31T10:09:28;8.43;;;3.90;;
79664;SDS011;69132;44.014;20.918;2023-10-31T10:11:56;6.00;;;3.75;;
79664;SDS011;69132;44.014;20.918;2023-10-31T10:14:24;9.02;;;4.40;;
79664;SDS011;69132;44.014;20.918;2023-10-31T10:16:52;9.05;;;3.85;;
79664;SDS011;69132;44.014;20.918;2023-10-31T10:19:19;8.00;;;4.35;;
79664;SDS011;69132;44.014;20.918;2023-10-31T10:21:46;7.63;;;5.05;;
79664;SDS011;69132;44.014;20.918;2023-10-31T10:24:15;8.48;;;4.05;;
79664;SDS011;69132;44.014;20.918;2023-10-31T10:26:41;9.90;;;5.13;;
79664;SDS011;69132;44.014;20.918;2023-10-31T10:29:08;8.63;;;5.00;;
79664;SDS011;69132;44.014;20.918;2023-10-31T10:34:01;7.00;;;3.67;;
79664;SDS011;69132;44.014;20.918;2023-10-31T10:39:11;8.93;;;4.97;;
79664;SDS011;69132;44.014;20.918;2023-10-31T10:41:37;11.00;;;4.72;;
79664;SDS011;69132;44.014;20.918;2023-10-31T10:44:06;9.75;;;4.80;;
79664;SDS011;69132;44.014;20.918;2023-10-31T10:46:34;9.30;;;4.72;;
79664;SDS011;69132;44.014;20.918;2023-10-31T10:49:03;6.68;;;3.80;;
79664;SDS011;69132;44.014;20.918;2023-10-31T10:54:04;11.57;;;6.78;;
79664;SDS011;69132;44.014;20.918;2023-10-31T10:56:46;11.20;;;5.07;;
79664;SDS011;69132;44.014;20.918;2023-10-31T10:59:21;9.93;;;5.82;;
79664;SDS011;69132;44.014;20.918;2023-10-31T11:01:47;9.43;;;5.03;;
79664;SDS011;69132;44.014;20.918;2023-10-31T11:04:16;11.70;;;5.25;;
79664;SDS011;69132;44.014;20.918;2023-10-31T11:06:42;11.30;;;4.65;;
79664;SDS011;69132;44.014;20.918;2023-10-31T11:09:09;7.93;;;4.97;;
79664;SDS011;69132;44.014;20.918;2023-10-31T11:11:40;8.35;;;5.60;;
79664;SDS011;69132;44.014;20.918;2023-10-31T11:14:07;9.88;;;6.10;;
79664;SDS011;69132;44.014;20.918;2023-10-31T11:16:43;11.82;;;6.25;;
79664;SDS011;69132;44.014;20.918;2023-10-31T11:19:10;12.48;;;6.43;;
79664;SDS011;69132;44.014;20.918;2023-10-31T11:21:36;13.05;;;6.03;;
79664;SDS011;69132;44.014;20.918;2023-10-31T11:24:03;11.07;;;6.20;;
79664;SDS011;69132;44.014;20.918;2023-10-31T11:26:30;9.38;;;5.18;;
79664;SDS011;69132;44.014;20.918;2023-10-31T11:29:10;9.47;;;4.90;;
79664;SDS011;69132;44.014;20.918;2023-10-31T11:31:37;11.32;;;6.13;;
79664;SDS011;69132;44.014;20.918;2023-10-31T11:34:05;8.32;;;5.38;;
79664;SDS011;69132;44.014;20.918;2023-10-31T11:39:13;10.30;;;5.32;;
79664;SDS011;69132;44.014;20.918;2023-10-31T11:41:48;8.13;;;4.78;;
79664;SDS011;69132;44.014;20.918;2023-10-31T11:44:18;9.27;;;4.78;;
79664;SDS011;69132;44.014;20.918;2023-10-31T11:46:47;9.30;;;4.80;;
79664;SDS011;69132;44.014;20.918;2023-10-31T11:49:45;10.52;;;4.63;;
79664;SDS011;69132;44.014;20.918;2023-10-31T11:52:19;10.32;;;5.57;;
79664;SDS011;69132;44.014;20.918;2023-10-31T11:54:45;9.63;;;5.07;;
79664;SDS011;69132;44.014;20.918;2023-10-31T11:57:26;11.40;;;5.57;;
79664;SDS011;69132;44.014;20.918;2023-10-31T11:59:56;7.72;;;4.30;;
79664;SDS011;69132;44.014;20.918;2023-10-31T12:02:26;6.70;;;3.97;;
79664;SDS011;69132;44.014;20.918;2023-10-31T12:05:06;9.93;;;4.22;;
79664;SDS011;69132;44.014;20.918;2023-10-31T12:07:50;7.65;;;4.10;;
79664;SDS011;69132;44.014;20.918;2023-10-31T12:10:26;7.75;;;4.43;;
79664;SDS011;69132;44.014;20.918;2023-10-31T12:12:55;8.20;;;3.90;;
79664;SDS011;69132;44.014;20.918;2023-10-31T12:15:24;7.88;;;4.20;;
79664;SDS011;69132;44.014;20.918;2023-10-31T12:17:51;9.55;;;4.63;;
79664;SDS011;69132;44.014;20.918;2023-10-31T12:20:17;16.58;;;7.20;;
79664;SDS011;69132;44.014;20.918;2023-10-31T12:22:44;9.38;;;5.05;;
79664;SDS011;69132;44.014;20.918;2023-10-31T12:25:10;9.82;;;5.65;;
79664;SDS011;69132;44.014;20.918;2023-10-31T12:27:49;8.90;;;4.30;;
79664;SDS011;69132;44.014;20.918;2023-10-31T12:30:17;10.20;;;4.07;;
79664;SDS011;69132;44.014;20.918;2023-10-31T12:32:56;10.60;;;4.53;;
79664;SDS011;69132;44.014;20.918;2023-10-31T12:35:26;10.00;;;4.90;;
79664;SDS011;69132;44.014;20.918;2023-10-31T12:37:52;10.68;;;4.65;;
79664;SDS011;69132;44.014;20.918;2023-10-31T12:40:21;11.13;;;4.72;;
79664;SDS011;69132;44.014;20.918;2023-10-31T12:42:47;9.02;;;5.88;;
79664;SDS011;69132;44.014;20.918;2023-10-31T12:45:14;14.85;;;6.25;;
79664;SDS011;69132;44.014;20.918;2023-10-31T12:47:42;9.35;;;4.90;;
79664;SDS011;69132;44.014;20.918;2023-10-31T12:50:09;16.50;;;4.88;;
79664;SDS011;69132;44.014;20.918;2023-10-31T12:52:47;9.48;;;4.25;;
79664;SDS011;69132;44.014;20.918;2023-10-31T12:55:17;9.05;;;3.88;;
79664;SDS011;69132;44.014;20.918;2023-10-31T12:58:09;9.80;;;4.50;;
79664;SDS011;69132;44.014;20.918;2023-10-31T13:00:47;12.75;;;6.90;;
79664;SDS011;69132;44.014;20.918;2023-10-31T13:03:16;10.47;;;4.73;;
79664;SDS011;69132;44.014;20.918;2023-10-31T13:05:42;13.82;;;5.32;;
79664;SDS011;69132;44.014;20.918;2023-10-31T13:14:04;13.57;;;5.00;;
79664;SDS011;69132;44.014;20.918;2023-10-31T13:16:33;10.77;;;4.43;;
79664;SDS011;69132;44.014;20.918;2023-10-31T13:19:02;8.40;;;4.07;;
79664;SDS011;69132;44.014;20.918;2023-10-31T13:21:28;16.30;;;4.45;;
79664;SDS011;69132;44.014;20.918;2023-10-31T13:23:54;8.77;;;4.20;;
79664;SDS011;69132;44.014;20.918;2023-10-31T13:26:21;11.88;;;4.50;;
79664;SDS011;69132;44.014;20.918;2023-10-31T13:28:48;12.40;;;4.25;;
79664;SDS011;69132;44.014;20.918;2023-10-31T13:31:14;10.25;;;4.00;;
79664;SDS011;69132;44.014;20.918;2023-10-31T13:33:40;12.55;;;4.68;;
79664;SDS011;69132;44.014;20.918;2023-10-31T13:36:07;11.75;;;5.03;;
79664;SDS011;69132;44.014;20.918;2023-10-31T13:38:36;9.25;;;3.85;;
79664;SDS011;69132;44.014;20.918;2023-10-31T13:43:56;11.98;;;4.43;;
79664;SDS011;69132;44.014;20.918;2023-10-31T13:46:22;12.38;;;6.03;;
79664;SDS011;69132;44.014;20.918;2023-10-31T13:51:19;13.45;;;5.90;;
79664;SDS011;69132;44.014;20.918;2023-10-31T13:53:45;10.35;;;5.32;;
79664;SDS011;69132;44.014;20.918;2023-10-31T13:56:15;10.52;;;5.07;;
79664;SDS011;69132;44.014;20.918;2023-10-31T13:58:42;16.83;;;6.25;;
79664;SDS011;69132;44.014;20.918;2023-10-31T14:01:08;10.38;;;4.95;;
79664;SDS011;69132;44.014;20.918;2023-10-31T14:03:35;11.45;;;5.20;;
79664;SDS011;69132;44.014;20.918;2023-10-31T14:06:06;8.20;;;4.90;;
79664;SDS011;69132;44.014;20.918;2023-10-31T14:08:32;12.65;;;5.70;;
79664;SDS011;69132;44.014;20.918;2023-10-31T14:10:58;11.27;;;4.78;;
79664;SDS011;69132;44.014;20.918;2023-10-31T14:13:27;6.55;;;4.00;;
79664;SDS011;69132;44.014;20.918;2023-10-31T14:15:53;12.80;;;5.30;;
79664;SDS011;69132;44.014;20.918;2023-10-31T14:18:24;9.02;;;4.20;;
79664;SDS011;69132;44.014;20.918;2023-10-31T14:20:50;9.43;;;4.47;;
79664;SDS011;69132;44.014;20.918;2023-10-31T14:23:17;15.77;;;5.47;;
79664;SDS011;69132;44.014;20.918;2023-10-31T14:25:43;13.50;;;4.68;;
79664;SDS011;69132;44.014;20.918;2023-10-31T14:28:09;14.23;;;6.38;;
79664;SDS011;69132;44.014;20.918;2023-10-31T14:30:36;11.73;;;5.97;;
79664;SDS011;69132;44.014;20.918;2023-10-31T14:33:05;9.82;;;5.70;;
79664;SDS011;69132;44.014;20.918;2023-10-31T14:35:31;13.82;;;5.80;;
79664;SDS011;69132;44.014;20.918;2023-10-31T14:38:00;11.00;;;5.43;;
79664;SDS011;69132;44.014;20.918;2023-10-31T14:40:27;11.52;;;5.30;;
79664;SDS011;69132;44.014;20.918;2023-10-31T14:42:53;10.60;;;5.50;;
79664;SDS011;69132;44.014;20.918;2023-10-31T14:45:19;11.32;;;4.60;;
79664;SDS011;69132;44.014;20.918;2023-10-31T14:47:47;11.10;;;5.05;;
79664;SDS011;69132;44.014;20.918;2023-10-31T14:50:13;12.43;;;5.25;;
79664;SDS011;69132;44.014;20.918;2023-10-31T14:52:39;12.45;;;5.03;;
79664;SDS011;69132;44.014;20.918;2023-10-31T14:55:06;12.02;;;4.95;;
79664;SDS011;69132;44.014;20.918;2023-10-31T14:57:35;10.85;;;5.22;;
79664;SDS011;69132;44.014;20.918;2023-10-31T15:00:01;7.93;;;4.15;;
79664;SDS011;69132;44.014;20.918;2023-10-31T15:02:28;11.35;;;5.10;;
79664;SDS011;69132;44.014;20.918;2023-10-31T15:04:55;9.43;;;4.90;;
79664;SDS011;69132;44.014;20.918;2023-10-31T15:07:21;9.77;;;5.28;;
79664;SDS011;69132;44.014;20.918;2023-10-31T15:09:47;7.93;;;5.75;;
79664;SDS011;69132;44.014;20.918;2023-10-31T15:12:15;13.25;;;5.57;;
79664;SDS011;69132;44.014;20.918;2023-10-31T15:14:41;11.32;;;6.10;;
79664;SDS011;69132;44.014;20.918;2023-10-31T15:17:12;10.68;;;4.68;;
79664;SDS011;69132;44.014;20.918;2023-10-31T15:19:39;11.32;;;5.80;;
79664;SDS011;69132;44.014;20.918;2023-10-31T15:22:05;16.63;;;6.85;;
79664;SDS011;69132;44.014;20.918;2023-10-31T15:24:35;11.82;;;6.88;;
79664;SDS011;69132;44.014;20.918;2023-10-31T15:30:06;17.88;;;5.97;;
79664;SDS011;69132;44.014;20.918;2023-10-31T15:32:33;12.35;;;6.93;;
79664;SDS011;69132;44.014;20.918;2023-10-31T15:35:17;13.68;;;5.75;;
79664;SDS011;69132;44.014;20.918;2023-10-31T15:37:43;13.77;;;6.40;;
79664;SDS011;69132;44.014;20.918;2023-10-31T15:40:12;14.75;;;5.95;;
79664;SDS011;69132;44.014;20.918;2023-10-31T15:42:39;11.82;;;7.00;;
79664;SDS011;69132;44.014;20.918;2023-10-31T15:45:06;14.32;;;5.70;;